createdAt,value
2024-04-21T00:01:39.170Z,96618.81
2024-04-21T00:04:06.223Z,96613.91
2024-04-21T00:06:33.191Z,96610.38
2024-04-21T00:09:00.074Z,96603.38
2024-04-21T00:11:26.981Z,96608.94
2024-04-21T00:13:53.900Z,96604.63
2024-04-21T00:16:21.130Z,96612.38
2024-04-21T00:18:48.081Z,96601.06
2024-04-21T00:21:15.213Z,96613.66
2024-04-21T00:23:42.300Z,96607.19
2024-04-21T00:26:09.199Z,96612.00
2024-04-21T00:28:36.112Z,96598.25
2024-04-21T00:31:03.135Z,96599.06
2024-04-21T00:33:30.312Z,96596.06
2024-04-21T00:35:57.256Z,96604.38
2024-04-21T00:38:24.135Z,96605.72
2024-04-21T00:40:51.052Z,96610.00
2024-04-21T00:43:18.052Z,96605.13
2024-04-21T00:45:48.546Z,96608.88
2024-04-21T00:48:16.288Z,96613.91
2024-04-21T00:50:56.510Z,96614.16
2024-04-21T00:53:24.812Z,96612.53
2024-04-21T00:55:56.084Z,96595.97
2024-04-21T00:58:24.425Z,96596.75
2024-04-21T01:00:52.034Z,96607.13
2024-04-21T01:03:19.520Z,96599.88
2024-04-21T01:05:47.217Z,96604.63
2024-04-21T01:08:14.755Z,96598.66
2024-04-21T01:10:41.699Z,96599.94
2024-04-21T01:13:14.846Z,96607.94
2024-04-21T01:15:41.862Z,96598.00
2024-04-21T01:21:03.560Z,96598.81
2024-04-21T01:23:30.584Z,96566.84
2024-04-21T01:25:57.706Z,96579.44
2024-04-21T01:28:24.977Z,96592.34
2024-04-21T01:30:51.880Z,96597.16
2024-04-21T01:33:18.862Z,96585.84
2024-04-21T01:35:47.666Z,96596.56
2024-04-21T01:38:14.503Z,96595.78
2024-04-21T01:40:41.604Z,96595.94
2024-04-21T01:43:08.589Z,96590.06
2024-04-21T01:45:35.929Z,96585.19
2024-04-21T01:48:03.868Z,96592.41
2024-04-21T01:50:30.865Z,96598.53
2024-04-21T01:52:57.780Z,96597.72
2024-04-21T01:55:24.755Z,96589.41
2024-04-21T01:57:54.267Z,96594.16
2024-04-21T02:00:21.359Z,96592.78
2024-04-21T02:02:48.251Z,96596.19
2024-04-21T02:05:16.016Z,96600.13
2024-04-21T02:07:42.905Z,96606.31
2024-04-21T02:10:10.090Z,96585.28
2024-04-21T02:12:37.052Z,96603.00
2024-04-21T02:15:05.030Z,96613.16
2024-04-21T02:17:32.025Z,96620.34
2024-04-21T02:19:58.893Z,96609.88
2024-04-21T02:22:26.094Z,96616.81
2024-04-21T02:24:53.105Z,96612.53
2024-04-21T02:27:20.072Z,96623.19
2024-04-21T02:29:47.116Z,96624.16
2024-04-21T02:32:14.110Z,96622.88
2024-04-21T02:34:41.002Z,96621.50
2024-04-21T02:37:08.131Z,96620.91
2024-04-21T02:39:35.121Z,96634.81
2024-04-21T02:42:02.074Z,96622.78
2024-04-21T02:44:29.032Z,96620.84
2024-04-21T02:46:56.162Z,96625.09
2024-04-21T02:49:23.182Z,96632.88
2024-04-21T02:51:50.143Z,96633.38
2024-04-21T02:54:17.301Z,96633.38
2024-04-21T02:56:44.205Z,96613.13
2024-04-21T02:59:11.065Z,96626.09
2024-04-21T03:01:38.207Z,96630.25
2024-04-21T03:04:05.402Z,96627.59
2024-04-21T03:06:32.399Z,96623.31
2024-04-21T03:08:59.434Z,96626.47
2024-04-21T03:11:26.665Z,96635.50
2024-04-21T03:13:53.711Z,96633.31
2024-04-21T03:16:20.786Z,96622.34
2024-04-21T03:18:47.813Z,96634.84
2024-04-21T03:21:14.942Z,96630.81
2024-04-21T03:23:41.800Z,96636.97
2024-04-21T03:26:08.792Z,96629.91
2024-04-21T03:28:35.828Z,96628.06
2024-04-21T03:31:02.849Z,96646.25
2024-04-21T03:33:30.021Z,96646.47
2024-04-21T03:36:09.916Z,96638.38
2024-04-21T03:38:38.346Z,96648.56
2024-04-21T03:41:06.308Z,96640.50
2024-04-21T03:43:33.350Z,96631.66
2024-04-21T03:46:00.352Z,96629.25
2024-04-21T03:48:27.504Z,96630.38
2024-04-21T03:50:54.720Z,96633.63
2024-04-21T03:53:23.219Z,96637.66
2024-04-21T03:55:50.611Z,96636.53
2024-04-21T03:58:17.775Z,96643.56
2024-04-21T04:00:48.967Z,96639.63
2024-04-21T04:03:16.969Z,96644.13
2024-04-21T04:05:47.618Z,96644.13
2024-04-21T04:08:14.535Z,96636.38
2024-04-21T04:10:43.646Z,96641.56
2024-04-21T04:13:10.986Z,96641.56
2024-04-21T04:15:38.690Z,96640.78
2024-04-21T04:18:05.764Z,96637.03
2024-04-21T04:20:35.164Z,96648.38
2024-04-21T04:23:03.497Z,96639.31
2024-04-21T04:25:30.392Z,96638.84
2024-04-21T04:27:57.801Z,96644.75
2024-04-21T04:30:24.756Z,96643.13
2024-04-21T04:32:51.697Z,96641.66
2024-04-21T04:35:18.690Z,96659.44
2024-04-21T04:37:45.664Z,96647.31
2024-04-21T04:40:12.960Z,96652.03
2024-04-21T04:42:39.907Z,96658.72
2024-04-21T04:45:07.272Z,96662.53
2024-04-21T04:47:34.267Z,96664.47
2024-04-21T04:50:01.286Z,96662.94
2024-04-21T04:52:28.226Z,96659.00
2024-04-21T04:54:55.207Z,96665.94
2024-04-21T04:57:22.867Z,96657.69
2024-04-21T04:59:49.765Z,96662.88
2024-04-21T05:02:16.676Z,96658.59
2024-04-21T05:04:43.945Z,96657.88
2024-04-21T05:07:14.191Z,96668.38
2024-04-21T05:09:41.614Z,96664.44
2024-04-21T05:12:08.820Z,96664.97
2024-04-21T05:14:35.705Z,96666.69
2024-04-21T05:17:03.077Z,96660.13
2024-04-21T05:19:30.081Z,96655.34
2024-04-21T05:21:57.300Z,96658.66
2024-04-21T05:24:24.221Z,96656.81
2024-04-21T05:26:51.325Z,96660.09
2024-04-21T05:29:18.232Z,96662.06
2024-04-21T05:31:45.187Z,96659.47
2024-04-21T05:34:13.447Z,96650.97
2024-04-21T05:36:40.355Z,96659.84
2024-04-21T05:39:07.494Z,96656.44
2024-04-21T05:41:34.458Z,96662.44
2024-04-21T05:44:02.039Z,96661.41
2024-04-21T05:46:28.911Z,96659.63
2024-04-21T05:48:55.887Z,96661.34
2024-04-21T05:51:22.851Z,96662.75
2024-04-21T05:53:49.726Z,96656.97
2024-04-21T05:56:17.550Z,96654.63
2024-04-21T05:58:44.486Z,96657.16
2024-04-21T06:01:11.599Z,96654.84
2024-04-21T06:03:38.894Z,96649.31
2024-04-21T06:06:07.883Z,96656.94
2024-04-21T06:08:35.397Z,96653.81
2024-04-21T06:11:02.611Z,96660.13
2024-04-21T06:13:29.786Z,96653.78
2024-04-21T06:15:56.746Z,96661.41
2024-04-21T06:18:23.953Z,96663.09
2024-04-21T06:20:50.983Z,96667.72
2024-04-21T06:23:19.280Z,96655.78
2024-04-21T06:25:46.147Z,96668.78
2024-04-21T06:28:13.230Z,96640.09
2024-04-21T06:30:42.347Z,96668.41
2024-04-21T06:33:09.603Z,96662.88
2024-04-21T06:35:36.566Z,96656.47
2024-04-21T06:38:03.708Z,96656.78
2024-04-21T06:40:31.460Z,96660.91
2024-04-21T06:42:58.637Z,96655.34
2024-04-21T06:45:25.593Z,96650.28
2024-04-21T06:47:52.648Z,96656.78
2024-04-21T06:50:19.651Z,96653.59
2024-04-21T06:52:46.617Z,96658.97
2024-04-21T06:55:13.520Z,96648.19
2024-04-21T06:57:42.369Z,96659.94
2024-04-21T07:00:09.815Z,96656.34
2024-04-21T07:02:36.863Z,96642.03
2024-04-21T07:05:04.782Z,96657.16
2024-04-21T07:07:31.715Z,96650.81
2024-04-21T07:09:58.863Z,96641.75
2024-04-21T07:12:25.836Z,96649.75
2024-04-21T07:14:52.767Z,96649.72
2024-04-21T07:17:19.652Z,96649.88
2024-04-21T07:19:46.587Z,96636.53
2024-04-21T07:22:13.619Z,96637.66
2024-04-21T07:24:40.697Z,96641.28
2024-04-21T07:27:07.578Z,96646.09
2024-04-21T07:29:34.599Z,96638.41
2024-04-21T07:32:02.157Z,96642.34
2024-04-21T07:34:29.746Z,96631.56
2024-04-21T07:36:56.776Z,96629.03
2024-04-21T07:39:23.905Z,96632.97
2024-04-21T07:41:50.834Z,96636.75
2024-04-21T07:44:17.798Z,96634.22
2024-04-21T07:46:44.704Z,96642.22
2024-04-21T07:49:11.894Z,96630.59
2024-04-21T07:51:38.936Z,96640.47
2024-04-21T07:54:07.897Z,96640.72
2024-04-21T07:56:34.802Z,96636.28
2024-04-21T07:59:01.788Z,96637.97
2024-04-21T08:01:28.939Z,96640.13
2024-04-21T08:03:55.876Z,96634.88
2024-04-21T08:06:23.636Z,96641.75
2024-04-21T08:08:57.328Z,96649.69
2024-04-21T08:11:27.919Z,96643.84
2024-04-21T08:13:55.007Z,96635.03
2024-04-21T08:16:21.942Z,96646.44
2024-04-21T08:18:49.148Z,96655.31
2024-04-21T08:21:19.218Z,96644.47
2024-04-21T08:23:46.138Z,96648.03
2024-04-21T08:26:12.987Z,96654.47
2024-04-21T08:28:39.927Z,96654.97
2024-04-21T08:31:06.894Z,96645.28
2024-04-21T08:33:33.880Z,96648.66
2024-04-21T08:36:00.907Z,96658.81
2024-04-21T08:38:29.567Z,96665.22
2024-04-21T08:40:57.437Z,96660.53
2024-04-21T08:43:26.208Z,96663.13
2024-04-21T08:45:57.325Z,96647.47
2024-04-21T08:48:27.150Z,96657.28
2024-04-21T08:50:54.382Z,96658.75
2024-04-21T08:53:21.414Z,96653.81
2024-04-21T08:55:50.330Z,96660.69
2024-04-21T08:58:18.342Z,96656.53
2024-04-21T09:00:47.006Z,96661.34
2024-04-21T09:03:17.808Z,96651.88
2024-04-21T09:05:51.107Z,96649.47
2024-04-21T09:08:18.082Z,96650.09
2024-04-21T09:10:45.114Z,96641.06
2024-04-21T09:13:12.304Z,96656.03
2024-04-21T09:15:40.216Z,96645.53
2024-04-21T09:18:08.275Z,96646.94
2024-04-21T09:20:38.323Z,96638.63
2024-04-21T09:23:08.533Z,96636.47
2024-04-21T09:25:37.597Z,96638.63
2024-04-21T09:28:05.546Z,96644.88
2024-04-21T09:30:32.552Z,96638.28
2024-04-21T09:33:00.043Z,96640.78
2024-04-21T09:35:27.229Z,96631.28
2024-04-21T09:37:54.812Z,96633.81
2024-04-21T09:40:23.357Z,96634.44
2024-04-21T09:42:51.400Z,96630.16
2024-04-21T09:45:21.822Z,96610.53
2024-04-21T09:47:49.614Z,96634.97
2024-04-21T09:50:17.557Z,96618.50
2024-04-21T09:52:48.660Z,96633.03
2024-04-21T09:55:16.157Z,96642.81
2024-04-21T09:57:44.990Z,96635.63
2024-04-21T10:00:16.669Z,96628.25
2024-04-21T10:02:48.742Z,96624.88
2024-04-21T10:05:20.024Z,96641.41
2024-04-21T10:07:51.478Z,96618.47
2024-04-21T10:10:23.704Z,96616.53
2024-04-21T10:12:51.298Z,96623.44
2024-04-21T10:15:25.246Z,96623.19
2024-04-21T10:17:56.538Z,96615.16
2024-04-21T10:20:37.742Z,96621.00
2024-04-21T10:23:11.151Z,96608.44
2024-04-21T10:25:40.485Z,96608.97
2024-04-21T10:28:08.218Z,96623.81
2024-04-21T10:30:37.178Z,96623.41
2024-04-21T10:33:15.238Z,96617.53
2024-04-21T10:35:43.577Z,96620.06
2024-04-21T10:38:16.463Z,96611.91
2024-04-21T10:40:48.772Z,96596.66
2024-04-21T10:43:17.328Z,96596.69
2024-04-21T10:45:47.016Z,96588.81
2024-04-21T10:48:14.065Z,96601.91
2024-04-21T10:50:43.141Z,96580.84
2024-04-21T10:53:10.549Z,96603.41
2024-04-21T10:55:37.653Z,96606.34
2024-04-21T10:58:05.594Z,96603.06
2024-04-21T11:00:34.483Z,96585.50
2024-04-21T11:03:01.750Z,96594.03
2024-04-21T11:05:57.431Z,96589.81
2024-04-21T11:08:25.139Z,96603.03
2024-04-21T11:10:54.648Z,96615.09
2024-04-21T11:13:22.746Z,96602.34
2024-04-21T11:15:50.149Z,96605.19
2024-04-21T11:18:17.904Z,96592.22
2024-04-21T11:20:46.165Z,96595.97
2024-04-21T11:23:17.797Z,96595.75
2024-04-21T11:25:48.136Z,96576.28
2024-04-21T11:28:17.910Z,96585.50
2024-04-21T11:30:44.956Z,96576.59
2024-04-21T11:33:12.262Z,96565.97
2024-04-21T11:35:40.085Z,96578.13
2024-04-21T11:38:07.610Z,96579.38
2024-04-21T11:40:41.139Z,96568.59
2024-04-21T11:43:11.448Z,96567.03
2024-04-21T11:45:40.561Z,96568.03
2024-04-21T11:48:09.119Z,96563.78
2024-04-21T11:50:39.127Z,96565.38
2024-04-21T11:53:06.642Z,96563.66
2024-04-21T11:55:34.083Z,96564.66
2024-04-21T11:58:01.488Z,96548.00
2024-04-21T12:00:28.511Z,96545.88
2024-04-21T12:02:55.570Z,96552.38
2024-04-21T12:05:23.719Z,96549.00
2024-04-21T12:07:51.175Z,96536.78
2024-04-21T12:10:18.203Z,96546.09
2024-04-21T12:12:45.205Z,96517.41
2024-04-21T12:15:12.129Z,96539.94
2024-04-21T12:17:39.205Z,96528.88
2024-04-21T12:20:07.054Z,96532.59
2024-04-21T12:22:34.022Z,96523.22
2024-04-21T12:25:01.205Z,96524.66
2024-04-21T12:27:28.093Z,96520.69
2024-04-21T12:29:55.184Z,96504.34
2024-04-21T12:32:22.333Z,96514.59
2024-04-21T12:34:49.341Z,96522.91
2024-04-21T12:37:16.529Z,96503.72
2024-04-21T12:39:43.759Z,96509.06
2024-04-21T12:42:10.918Z,96506.22
2024-04-21T12:44:37.850Z,96513.97
2024-04-21T12:47:05.106Z,96498.13
2024-04-21T12:49:32.062Z,96492.78
2024-04-21T12:51:59.120Z,96498.25
2024-04-21T12:54:26.374Z,96503.56
2024-04-21T12:56:53.285Z,96496.34
2024-04-21T12:59:22.491Z,96499.13
2024-04-21T13:01:49.726Z,96487.47
2024-04-21T13:04:16.882Z,96486.13
2024-04-21T13:06:43.770Z,96487.28
2024-04-21T13:09:11.245Z,96491.09
2024-04-21T13:11:38.314Z,96481.63
2024-04-21T13:14:05.208Z,96489.50
2024-04-21T13:16:32.702Z,96468.63
2024-04-21T13:18:59.744Z,96476.59
2024-04-21T13:21:27.398Z,96487.66
2024-04-21T13:23:54.671Z,96485.25
2024-04-21T13:26:21.958Z,96488.78
2024-04-21T13:28:49.103Z,96490.72
2024-04-21T13:31:16.105Z,96485.94
2024-04-21T13:33:43.107Z,96475.69
2024-04-21T13:36:15.150Z,96476.75
2024-04-21T13:38:47.674Z,96476.94
2024-04-21T13:41:14.619Z,96469.06
2024-04-21T13:43:41.822Z,96477.63
2024-04-21T13:46:08.824Z,96486.13
2024-04-21T13:48:36.673Z,96483.50
2024-04-21T13:51:16.925Z,96480.59
2024-04-21T13:53:51.635Z,96488.69
2024-04-21T13:56:18.541Z,96486.41
2024-04-21T13:58:45.561Z,96482.00
2024-04-21T14:01:12.824Z,96462.56
2024-04-21T14:03:39.750Z,96476.66
2024-04-21T14:06:07.013Z,96479.75
2024-04-21T14:08:34.005Z,96477.75
2024-04-21T14:11:01.104Z,96484.66
2024-04-21T14:13:29.167Z,96483.97
2024-04-21T14:15:56.256Z,96482.63
2024-04-21T14:18:23.801Z,96491.41
2024-04-21T14:20:51.111Z,96483.22
2024-04-21T14:23:18.181Z,96486.41
2024-04-21T14:25:45.178Z,96482.44
2024-04-21T14:28:12.384Z,96484.47
2024-04-21T14:30:39.315Z,96491.06
2024-04-21T14:33:06.634Z,96489.00
2024-04-21T14:35:33.581Z,96495.66
2024-04-21T14:38:00.543Z,96494.41
2024-04-21T14:40:27.437Z,96487.56
2024-04-21T14:42:54.361Z,96483.78
2024-04-21T14:45:21.517Z,96489.47
2024-04-21T14:47:55.808Z,96487.75
2024-04-21T14:50:23.140Z,96482.75
2024-04-21T14:52:50.354Z,96481.44
2024-04-21T14:55:17.489Z,96479.97
2024-04-21T14:57:47.729Z,96474.94
2024-04-21T15:00:15.485Z,96476.53
2024-04-21T15:02:42.755Z,96477.66
2024-04-21T15:05:09.814Z,96479.88
2024-04-21T15:07:37.559Z,96476.13
2024-04-21T15:10:07.625Z,96478.19
2024-04-21T15:12:34.642Z,96471.81
2024-04-21T15:15:01.686Z,96480.47
2024-04-21T15:17:28.564Z,96472.59
2024-04-21T15:19:56.133Z,96480.38
2024-04-21T15:22:25.818Z,96484.94
2024-04-21T15:24:54.533Z,96476.84
2024-04-21T15:27:21.503Z,96482.22
2024-04-21T15:29:48.506Z,96484.16
2024-04-21T15:32:15.367Z,96482.91
2024-04-21T15:34:42.907Z,96476.09
2024-04-21T15:37:09.866Z,96480.19
2024-04-21T15:39:36.919Z,96480.06
2024-04-21T15:42:06.433Z,96481.34
2024-04-21T15:44:33.385Z,96483.69
2024-04-21T15:47:00.378Z,96477.66
2024-04-21T15:49:27.529Z,96484.25
2024-04-21T15:51:55.542Z,96490.47
2024-04-21T15:54:22.698Z,96479.66
2024-04-21T15:56:49.808Z,96484.75
2024-04-21T15:59:16.780Z,96486.44
2024-04-21T16:01:43.861Z,96484.13
2024-04-21T16:04:11.098Z,96496.03
2024-04-21T16:06:38.133Z,96497.44
2024-04-21T16:09:06.720Z,96503.34
2024-04-21T16:11:33.825Z,96501.91
2024-04-21T16:14:00.785Z,96506.09
2024-04-21T16:16:28.724Z,96491.00
2024-04-21T16:18:55.728Z,96497.69
2024-04-21T16:21:22.978Z,96498.72
2024-04-21T16:23:49.934Z,96490.16
2024-04-21T16:26:18.100Z,96505.50
2024-04-21T16:28:45.410Z,96515.00
2024-04-21T16:31:13.085Z,96517.91
2024-04-21T16:33:40.426Z,96495.22
2024-04-21T16:36:08.546Z,96520.06
2024-04-21T16:38:38.493Z,96512.25
2024-04-21T16:41:05.786Z,96525.81
2024-04-21T16:43:35.111Z,96525.84
2024-04-21T16:46:06.947Z,96535.78
2024-04-21T16:48:34.374Z,96540.06
2024-04-21T16:51:01.791Z,96521.31
2024-04-21T16:53:29.249Z,96533.75
2024-04-21T16:55:57.164Z,96542.03
2024-04-21T16:58:32.735Z,96550.78
2024-04-21T17:01:02.908Z,96550.44
2024-04-21T17:03:33.831Z,96543.00
2024-04-21T17:06:03.012Z,96534.59
2024-04-21T17:08:39.295Z,96558.34
2024-04-21T17:11:06.589Z,96554.56
2024-04-21T17:13:34.427Z,96564.56
2024-04-21T17:16:02.799Z,96548.75
2024-04-21T17:18:30.808Z,96570.22
2024-04-21T17:20:57.715Z,96567.88
2024-04-21T17:23:24.658Z,96574.72
2024-04-21T17:25:51.538Z,96573.78
2024-04-21T17:28:18.470Z,96576.19
2024-04-21T17:30:45.515Z,96578.63
2024-04-21T17:33:12.649Z,96581.53
2024-04-21T17:35:39.722Z,96580.13
2024-04-21T17:38:06.764Z,96594.03
2024-04-21T17:40:33.932Z,96587.22
2024-04-21T17:43:00.917Z,96583.47
2024-04-21T17:45:31.422Z,96587.41
2024-04-21T17:47:59.993Z,96591.34
2024-04-21T17:50:27.145Z,96602.97
2024-04-21T17:52:54.594Z,96607.22
2024-04-21T17:55:21.487Z,96605.78
2024-04-21T17:57:48.408Z,96605.13
2024-04-21T18:00:15.466Z,96600.72
2024-04-21T18:02:42.514Z,96608.59
2024-04-21T18:05:10.403Z,96584.28
2024-04-21T18:07:39.188Z,96596.19
2024-04-21T18:10:08.482Z,96603.78
2024-04-21T18:12:35.619Z,96601.44
2024-04-21T18:15:04.573Z,96610.91
2024-04-21T18:17:31.659Z,96599.97
2024-04-21T18:19:58.693Z,96592.09
2024-04-21T18:22:25.721Z,96599.13
2024-04-21T18:24:52.642Z,96611.63
2024-04-21T18:27:19.688Z,96625.41
2024-04-21T18:29:46.591Z,96598.91
2024-04-21T18:32:13.955Z,96611.00
2024-04-21T18:34:41.450Z,96606.59
2024-04-21T18:37:08.331Z,96614.16
2024-04-21T18:39:35.248Z,96627.69
2024-04-21T18:42:03.280Z,96617.59
2024-04-21T18:44:30.567Z,96624.44
2024-04-21T18:46:57.919Z,96628.28
2024-04-21T18:49:25.932Z,96623.47
2024-04-21T18:51:52.970Z,96630.75
2024-04-21T18:54:22.369Z,96639.38
2024-04-21T18:56:49.488Z,96634.66
2024-04-21T18:59:16.413Z,96636.31
2024-04-21T19:01:43.622Z,96624.00
2024-04-21T19:04:10.616Z,96631.28
2024-04-21T19:06:37.746Z,96612.00
2024-04-21T19:09:04.916Z,96634.81
2024-04-21T19:11:33.132Z,96625.47
2024-04-21T19:14:00.288Z,96637.06
2024-04-21T19:16:31.440Z,96604.09
2024-04-21T19:18:58.920Z,96620.72
2024-04-21T19:21:26.156Z,96622.09
2024-04-21T19:23:53.395Z,96632.38
2024-04-21T19:26:20.354Z,96643.13
2024-04-21T19:28:48.777Z,96634.59
2024-04-21T19:31:16.630Z,96619.56
2024-04-21T19:33:44.420Z,96645.38
2024-04-21T19:36:11.283Z,96641.09
2024-04-21T19:38:38.179Z,96650.25
2024-04-21T19:41:05.075Z,96648.66
2024-04-21T19:43:32.132Z,96652.44
2024-04-21T19:46:02.552Z,96659.97
2024-04-21T19:48:29.618Z,96657.28
2024-04-21T19:51:00.595Z,96655.69
2024-04-21T19:53:28.227Z,96656.78
2024-04-21T19:55:55.394Z,96654.34
2024-04-21T19:58:22.341Z,96647.66
2024-04-21T20:00:52.363Z,96657.34
2024-04-21T20:03:19.407Z,96646.34
2024-04-21T20:05:46.352Z,96664.84
2024-04-21T20:08:17.638Z,96665.97
2024-04-21T20:10:44.743Z,96657.38
2024-04-21T20:13:11.964Z,96668.09
2024-04-21T20:15:57.329Z,96666.50
2024-04-21T20:18:36.570Z,96666.78
2024-04-21T20:21:05.130Z,96666.50
2024-04-21T20:23:32.727Z,96668.34
2024-04-21T20:26:04.743Z,96667.56
2024-04-21T20:28:31.917Z,96668.09
2024-04-21T20:30:58.857Z,96668.09
2024-04-21T20:33:26.426Z,96658.91
2024-04-21T20:35:53.503Z,96667.25
2024-04-21T20:38:20.430Z,96658.66
2024-04-21T20:40:48.503Z,96667.22
2024-04-21T20:43:15.514Z,96659.47
2024-04-21T20:45:42.449Z,96659.47
2024-04-21T20:48:09.514Z,96673.94
2024-04-21T20:50:36.646Z,96668.00
2024-04-21T20:53:03.837Z,96665.31
2024-04-21T20:55:30.830Z,96675.78
2024-04-21T20:57:57.871Z,96666.66
2024-04-21T21:00:25.006Z,96674.16
2024-04-21T21:02:52.120Z,96685.69
2024-04-21T21:05:19.117Z,96685.69
2024-04-21T21:07:46.043Z,96680.84
2024-04-21T21:10:13.144Z,96671.44
2024-04-21T21:12:40.007Z,96689.94
2024-04-21T21:15:07.598Z,96689.66
2024-04-21T21:17:37.774Z,96689.94
2024-04-21T21:20:05.823Z,96700.94
2024-04-21T21:22:32.758Z,96696.38
2024-04-21T21:24:59.707Z,96706.00
2024-04-21T21:27:26.700Z,96709.44
2024-04-21T21:29:53.883Z,96705.44
2024-04-21T21:32:20.925Z,96703.00
2024-04-21T21:34:47.871Z,96709.72
2024-04-21T21:37:15.069Z,96712.69
2024-04-21T21:39:42.115Z,96705.47
2024-04-21T21:42:09.250Z,96709.78
2024-04-21T21:44:36.467Z,96707.66
2024-04-21T21:47:03.370Z,96707.16
2024-04-21T21:49:30.329Z,96721.09
2024-04-21T21:51:57.650Z,96719.22
2024-04-21T21:54:27.395Z,96720.03
2024-04-21T21:56:54.507Z,96727.84
2024-04-21T21:59:25.149Z,96729.19
2024-04-21T22:01:52.386Z,96725.97
2024-04-21T22:04:19.328Z,96722.50
2024-04-21T22:06:47.271Z,96718.72
2024-04-21T22:09:14.244Z,96721.69
2024-04-21T22:11:41.145Z,96718.75
2024-04-21T22:14:10.081Z,96709.91
2024-04-21T22:16:37.365Z,96719.03
2024-04-21T22:19:04.477Z,96713.66
2024-04-21T22:21:31.389Z,96709.34
2024-04-21T22:23:58.246Z,96727.06
2024-04-21T22:26:25.521Z,96708.53
2024-04-21T22:28:52.443Z,96711.50
2024-04-21T22:31:20.130Z,96714.47
2024-04-21T22:33:47.407Z,96702.94
2024-04-21T22:36:14.401Z,96710.47
2024-04-21T22:38:41.496Z,96713.66
2024-04-21T22:41:08.472Z,96708.06
2024-04-21T22:43:36.100Z,96700.25
2024-04-21T22:46:08.027Z,96701.06
2024-04-21T22:48:37.062Z,96710.47
2024-04-21T22:51:05.894Z,96712.06
2024-04-21T22:53:33.040Z,96713.16
2024-04-21T22:56:00.240Z,96713.69
2024-04-21T22:58:27.470Z,96710.75
2024-04-21T23:00:54.636Z,96715.09
2024-04-21T23:03:21.748Z,96708.38
2024-04-21T23:05:48.784Z,96702.72
2024-04-21T23:08:15.888Z,96695.47
2024-04-21T23:10:43.049Z,96696.56
2024-04-21T23:13:10.472Z,96703.00
2024-04-21T23:15:37.482Z,96690.66
2024-04-21T23:18:04.989Z,96693.88
2024-04-21T23:20:33.492Z,96694.41
2024-04-21T23:23:01.661Z,96683.13
2024-04-21T23:25:28.591Z,96687.97
2024-04-21T23:27:55.622Z,96681.00
2024-04-21T23:30:22.755Z,96685.84
2024-04-21T23:32:49.881Z,96690.13
2024-04-21T23:35:16.941Z,96679.91
2024-04-21T23:37:44.129Z,96682.59
2024-04-21T23:40:11.198Z,96682.34
2024-04-21T23:42:38.217Z,96675.91
2024-04-21T23:45:09.251Z,96681.25
2024-04-21T23:47:36.768Z,96689.31
2024-04-21T23:50:07.713Z,96678.31
2024-04-21T23:52:34.606Z,96671.84
2024-04-21T23:55:01.545Z,96683.69
2024-04-21T23:57:28.430Z,96681.53
2024-04-21T23:59:55.720Z,96685.28
